createdAt,value
2018-08-09T00:01:39.482Z,101334.73
2018-08-09T00:04:08.795Z,101340.56
2018-08-09T00:06:38.150Z,101341.05
2018-08-09T00:09:09.238Z,101352.01
2018-08-09T00:11:38.724Z,101339.97
2018-08-09T00:14:08.262Z,101341.47
2018-08-09T00:16:37.567Z,101334.13
2018-08-09T00:19:07.081Z,101336.84
2018-08-09T00:21:36.403Z,101339.90
2018-08-09T00:24:05.821Z,101331.84
2018-08-09T00:26:35.105Z,101334.73
2018-08-09T00:29:04.429Z,101329.01
2018-08-09T00:31:33.943Z,101326.36
2018-08-09T00:34:03.871Z,101329.35
2018-08-09T00:36:33.505Z,101326.00
2018-08-09T00:39:02.881Z,101327.75
2018-08-09T00:41:32.147Z,101330.52
2018-08-09T00:44:01.666Z,101324.92
2018-08-09T00:46:30.952Z,101326.13
2018-08-09T00:49:00.396Z,101322.45
2018-08-09T00:51:29.657Z,101329.84
2018-08-09T00:53:58.938Z,101329.01
2018-08-09T00:56:28.243Z,101327.08
2018-08-09T00:58:58.051Z,101331.30
2018-08-09T01:01:27.432Z,101324.95
2018-08-09T01:03:56.871Z,101323.39
2018-08-09T01:06:26.221Z,101326.94
2018-08-09T01:09:01.157Z,101330.97
2018-08-09T01:11:30.444Z,101333.79
2018-08-09T01:13:59.733Z,101329.77
2018-08-09T01:16:29.024Z,101335.61
2018-08-09T01:18:58.844Z,101323.56
2018-08-09T01:21:28.173Z,101328.25
2018-08-09T01:23:57.446Z,101333.72
2018-08-09T01:26:26.742Z,101333.19
2018-08-09T01:28:56.361Z,101325.72
2018-08-09T01:31:33.490Z,101328.67
2018-08-09T01:34:04.703Z,101323.13
2018-08-09T01:36:34.675Z,101323.20
2018-08-09T01:39:06.429Z,101326.64
2018-08-09T01:41:35.724Z,101328.54
2018-08-09T01:44:06.218Z,101334.14
2018-08-09T01:46:35.507Z,101332.69
2018-08-09T01:49:04.805Z,101335.48
2018-08-09T01:51:34.070Z,101334.03
2018-08-09T01:54:03.377Z,101333.97
2018-08-09T01:56:32.918Z,101339.69
2018-08-09T01:59:02.237Z,101347.42
2018-08-09T02:01:31.558Z,101346.58
2018-08-09T02:04:00.860Z,101338.42
2018-08-09T02:06:30.101Z,101336.46
2018-08-09T02:09:08.653Z,101337.91
2018-08-09T02:11:37.898Z,101342.92
2018-08-09T02:14:07.252Z,101338.55
2018-08-09T02:16:37.081Z,101340.47
2018-08-09T02:19:06.337Z,101344.80
2018-08-09T02:21:35.718Z,101349.38
2018-08-09T02:24:04.983Z,101348.59
2018-08-09T02:26:34.430Z,101344.89
2018-08-09T02:29:03.734Z,101349.06
2018-08-09T02:31:33.066Z,101349.23
2018-08-09T02:34:02.361Z,101339.02
2018-08-09T02:36:31.628Z,101346.00
2018-08-09T02:39:01.427Z,101345.55
2018-08-09T02:41:30.685Z,101347.41
2018-08-09T02:43:59.946Z,101342.73
2018-08-09T02:46:29.218Z,101338.64
2018-08-09T02:48:58.519Z,101332.43
2018-08-09T02:51:28.215Z,101340.95
2018-08-09T02:53:57.499Z,101334.53
2018-08-09T02:56:26.785Z,101344.20
2018-08-09T02:58:56.204Z,101354.93
2018-08-09T03:01:25.641Z,101359.08
2018-08-09T03:03:55.633Z,101363.07
2018-08-09T03:06:24.906Z,101362.16
2018-08-09T03:08:54.200Z,101363.45
2018-08-09T03:11:24.189Z,101366.59
2018-08-09T03:13:53.634Z,101375.19
2018-08-09T03:16:22.974Z,101371.80
2018-08-09T03:18:52.293Z,101375.50
2018-08-09T03:21:21.620Z,101373.36
2018-08-09T03:23:51.583Z,101376.42
2018-08-09T03:26:20.849Z,101381.49
2018-08-09T03:28:50.081Z,101381.57
2018-08-09T03:31:19.356Z,101382.05
2018-08-09T03:33:48.576Z,101380.73
2018-08-09T03:36:17.934Z,101384.28
2018-08-09T03:38:47.229Z,101380.58
2018-08-09T03:41:16.528Z,101380.89
2018-08-09T03:43:45.838Z,101375.89
2018-08-09T03:46:15.252Z,101371.49
2018-08-09T03:48:44.535Z,101377.44
2018-08-09T03:51:13.889Z,101380.25
2018-08-09T03:53:43.213Z,101368.44
2018-08-09T03:56:12.695Z,101369.22
2018-08-09T03:58:41.954Z,101372.76
2018-08-09T04:01:11.234Z,101378.06
2018-08-09T04:03:40.534Z,101384.25
2018-08-09T04:06:09.794Z,101377.04
2018-08-09T04:08:39.444Z,101383.34
2018-08-09T04:11:08.846Z,101382.26
2018-08-09T04:13:38.094Z,101379.27
2018-08-09T04:16:07.392Z,101375.50
2018-08-09T04:18:36.814Z,101376.88
2018-08-09T04:21:06.124Z,101367.00
2018-08-09T04:23:35.519Z,101373.52
2018-08-09T04:26:04.807Z,101375.82
2018-08-09T04:28:34.114Z,101370.13
2018-08-09T04:31:03.815Z,101372.59
2018-08-09T04:33:33.127Z,101379.18
2018-08-09T04:36:02.408Z,101376.94
2018-08-09T04:38:31.695Z,101375.35
2018-08-09T04:41:00.934Z,101368.64
2018-08-09T04:43:30.251Z,101374.08
2018-08-09T04:46:00.327Z,101379.27
2018-08-09T04:48:29.774Z,101378.44
2018-08-09T04:50:59.054Z,101380.27
2018-08-09T04:53:28.573Z,101382.05
2018-08-09T04:55:58.006Z,101389.63
2018-08-09T04:58:27.343Z,101384.69
2018-08-09T05:00:56.684Z,101387.57
2018-08-09T05:03:25.955Z,101386.19
2018-08-09T05:05:55.236Z,101391.58
2018-08-09T05:08:24.614Z,101394.30
2018-08-09T05:10:53.878Z,101393.66
2018-08-09T05:13:23.549Z,101400.41
2018-08-09T05:15:53.177Z,101398.51
2018-08-09T05:18:22.516Z,101398.41
2018-08-09T05:20:51.851Z,101401.28
2018-08-09T05:23:21.207Z,101398.28
2018-08-09T05:25:50.501Z,101384.71
2018-08-09T05:28:19.813Z,101391.70
2018-08-09T05:30:49.101Z,101389.94
2018-08-09T05:33:18.407Z,101387.34
2018-08-09T05:35:47.658Z,101386.20
2018-08-09T05:38:17.099Z,101380.06
2018-08-09T05:40:46.628Z,101389.09
2018-08-09T05:43:15.904Z,101387.56
2018-08-09T05:45:45.267Z,101380.58
2018-08-09T05:48:14.542Z,101380.52
2018-08-09T05:50:47.368Z,101380.70
2018-08-09T05:53:16.759Z,101378.50
2018-08-09T05:55:46.201Z,101386.89
2018-08-09T05:58:16.228Z,101386.13
2018-08-09T06:00:45.519Z,101383.80
2018-08-09T06:03:14.980Z,101383.86
2018-08-09T06:05:45.409Z,101373.56
2018-08-09T06:08:14.807Z,101383.36
2018-08-09T06:10:44.142Z,101385.91
2018-08-09T06:13:13.470Z,101389.52
2018-08-09T06:15:42.777Z,101389.84
2018-08-09T06:18:12.108Z,101397.20
2018-08-09T06:20:41.752Z,101399.50
2018-08-09T06:23:11.046Z,101406.95
2018-08-09T06:25:40.348Z,101399.55
2018-08-09T06:28:09.642Z,101401.42
2018-08-09T06:30:39.050Z,101405.78
2018-08-09T06:33:08.434Z,101397.80
2018-08-09T06:35:37.752Z,101388.65
2018-08-09T06:38:07.086Z,101388.23
2018-08-09T06:40:36.417Z,101385.47
2018-08-09T06:43:06.128Z,101389.31
2018-08-09T06:45:35.415Z,101388.43
2018-08-09T06:48:04.763Z,101392.75
2018-08-09T06:50:34.086Z,101393.34
2018-08-09T06:53:03.386Z,101389.39
2018-08-09T06:55:32.665Z,101388.81
2018-08-09T06:58:02.008Z,101393.19
2018-08-09T07:00:31.336Z,101387.84
2018-08-09T07:03:00.767Z,101386.30
2018-08-09T07:05:30.387Z,101389.04
2018-08-09T07:07:59.715Z,101390.13
2018-08-09T07:10:29.254Z,101385.77
2018-08-09T07:12:58.531Z,101389.82
2018-08-09T07:15:27.777Z,101388.29
2018-08-09T07:17:57.310Z,101385.52
2018-08-09T07:20:26.730Z,101388.78
2018-08-09T07:22:55.916Z,101387.41
2018-08-09T07:25:25.210Z,101376.64
2018-08-09T07:27:55.122Z,101385.12
2018-08-09T07:30:24.629Z,101378.03
2018-08-09T07:32:53.956Z,101380.97
2018-08-09T07:35:23.321Z,101386.61
2018-08-09T07:37:52.630Z,101378.52
2018-08-09T07:40:21.953Z,101376.91
2018-08-09T07:42:51.302Z,101379.50
2018-08-09T07:45:20.710Z,101376.45
2018-08-09T07:47:50.021Z,101374.94
2018-08-09T07:50:19.787Z,101365.43
2018-08-09T07:52:49.112Z,101377.49
2018-08-09T07:55:18.417Z,101376.16
2018-08-09T07:57:47.755Z,101373.79
2018-08-09T08:00:17.151Z,101364.90
2018-08-09T08:02:46.487Z,101368.31
2018-08-09T08:05:15.913Z,101357.70
2018-08-09T08:07:45.253Z,101352.75
2018-08-09T08:10:14.572Z,101345.31
2018-08-09T08:12:44.203Z,101351.00
2018-08-09T08:15:13.538Z,101343.03
2018-08-09T08:17:42.843Z,101344.09
2018-08-09T08:20:12.144Z,101338.85
2018-08-09T08:22:41.405Z,101341.35
2018-08-09T08:25:10.657Z,101334.24
2018-08-09T08:27:40.000Z,101328.36
2018-08-09T08:30:13.129Z,101326.55
2018-08-09T08:32:43.812Z,101322.59
2018-08-09T08:35:13.253Z,101329.20
2018-08-09T08:37:42.659Z,101326.23
2018-08-09T08:40:12.122Z,101321.00
2018-08-09T08:42:41.580Z,101316.72
2018-08-09T08:45:13.462Z,101306.36
2018-08-09T08:47:43.294Z,101311.46
2018-08-09T08:50:13.174Z,101300.86
2018-08-09T08:52:42.872Z,101303.03
2018-08-09T08:55:12.865Z,101293.88
2018-08-09T08:57:42.209Z,101293.65
2018-08-09T09:00:13.292Z,101299.64
2018-08-09T09:02:42.595Z,101295.73
2018-08-09T09:05:13.318Z,101290.91
2018-08-09T09:07:42.648Z,101288.31
2018-08-09T09:10:14.127Z,101284.67
2018-08-09T09:12:43.906Z,101291.85
2018-08-09T09:15:15.344Z,101294.00
2018-08-09T09:17:45.274Z,101291.84
2018-08-09T09:20:15.930Z,101286.36
2018-08-09T09:22:45.493Z,101277.73
2018-08-09T09:25:15.249Z,101280.13
2018-08-09T09:27:44.531Z,101273.27
2018-08-09T09:30:16.294Z,101282.02
2018-08-09T09:32:45.986Z,101282.23
2018-08-09T09:35:15.360Z,101289.38
2018-08-09T09:37:45.137Z,101282.62
2018-08-09T09:40:14.451Z,101263.56
2018-08-09T09:42:43.718Z,101263.90
2018-08-09T09:45:13.349Z,101265.55
2018-08-09T09:47:42.650Z,101259.98
2018-08-09T09:50:12.564Z,101260.00
2018-08-09T09:52:42.646Z,101250.28
2018-08-09T09:55:11.946Z,101241.80
2018-08-09T09:57:41.277Z,101240.01
2018-08-09T10:00:15.969Z,101234.16
2018-08-09T10:02:45.742Z,101226.23
2018-08-09T10:05:15.481Z,101224.47
2018-08-09T10:07:44.993Z,101234.50
2018-08-09T10:10:14.318Z,101224.09
2018-08-09T10:12:43.837Z,101225.23
2018-08-09T10:15:13.733Z,101220.16
2018-08-09T10:17:43.005Z,101218.03
2018-08-09T10:20:13.546Z,101204.24
2018-08-09T10:22:42.910Z,101210.27
2018-08-09T10:25:12.415Z,101210.31
2018-08-09T10:27:41.927Z,101204.36
2018-08-09T10:30:12.027Z,101196.17
2018-08-09T10:32:41.574Z,101199.28
2018-08-09T10:35:10.919Z,101200.67
2018-08-09T10:37:40.349Z,101193.63
2018-08-09T10:40:09.770Z,101182.48
2018-08-09T10:42:39.367Z,101178.56
2018-08-09T10:45:08.737Z,101177.17
2018-08-09T10:47:38.141Z,101173.44
2018-08-09T10:50:07.471Z,101165.57
2018-08-09T10:52:37.062Z,101166.81
2018-08-09T10:55:07.099Z,101165.53
2018-08-09T10:57:36.393Z,101161.04
2018-08-09T11:00:09.557Z,101158.03
2018-08-09T11:02:38.916Z,101154.39
2018-08-09T11:05:09.236Z,101144.91
2018-08-09T11:07:39.504Z,101144.05
2018-08-09T11:10:10.080Z,101140.99
2018-08-09T11:12:39.480Z,101138.17
2018-08-09T11:15:11.785Z,101133.86
2018-08-09T11:17:41.218Z,101127.14
2018-08-09T11:20:10.762Z,101121.95
2018-08-09T11:22:40.845Z,101125.50
2018-08-09T11:25:10.515Z,101120.20
2018-08-09T11:27:39.915Z,101113.42
2018-08-09T11:30:09.293Z,101109.10
2018-08-09T11:32:38.693Z,101106.58
2018-08-09T11:35:08.032Z,101104.56
2018-08-09T11:37:37.375Z,101097.08
2018-08-09T11:40:06.819Z,101086.88
2018-08-09T11:42:36.100Z,101082.05
2018-08-09T11:45:06.592Z,101078.83
2018-08-09T11:47:35.921Z,101075.53
2018-08-09T11:50:05.639Z,101062.95
2018-08-09T11:52:35.284Z,101070.29
2018-08-09T11:55:05.569Z,101064.48
2018-08-09T11:57:35.093Z,101048.93
2018-08-09T12:00:07.040Z,101037.52
2018-08-09T12:02:36.803Z,101023.66
2018-08-09T12:05:06.215Z,101017.44
2018-08-09T12:07:36.064Z,101010.02
2018-08-09T12:10:05.669Z,100995.77
2018-08-09T12:12:35.056Z,100995.48
2018-08-09T12:15:05.488Z,100995.22
2018-08-09T12:17:35.155Z,100996.03
2018-08-09T12:20:05.129Z,100997.17
2018-08-09T12:22:34.498Z,100982.81
2018-08-09T12:25:04.536Z,100978.83
2018-08-09T12:27:33.948Z,100986.92
2018-08-09T12:30:03.700Z,100969.47
2018-08-09T12:32:33.130Z,100973.56
2018-08-09T12:35:02.641Z,100966.66
2018-08-09T12:37:32.219Z,100969.39
2018-08-09T12:40:02.132Z,100958.17
2018-08-09T12:42:31.642Z,100946.73
2018-08-09T12:45:01.911Z,100937.12
2018-08-09T12:47:32.946Z,100929.95
2018-08-09T12:50:02.693Z,100927.23
2018-08-09T12:52:33.300Z,100927.09
2018-08-09T12:55:03.012Z,100932.00
2018-08-09T12:57:33.906Z,100927.22
2018-08-09T13:00:03.385Z,100919.49
2018-08-09T13:02:32.638Z,100905.09
2018-08-09T13:05:03.109Z,100903.41
2018-08-09T13:07:32.590Z,100891.17
2018-08-09T13:10:01.930Z,100888.78
2018-08-09T13:12:31.547Z,100886.06
2018-08-09T13:15:00.873Z,100877.81
2018-08-09T13:17:30.145Z,100869.69
2018-08-09T13:19:59.480Z,100866.55
2018-08-09T13:22:28.785Z,100865.14
2018-08-09T13:24:58.142Z,100866.52
2018-08-09T13:27:27.509Z,100861.03
2018-08-09T13:29:56.883Z,100849.47
2018-08-09T13:32:26.252Z,100853.73
2018-08-09T13:34:55.791Z,100850.63
2018-08-09T13:37:25.202Z,100837.98
2018-08-09T13:39:54.572Z,100847.95
2018-08-09T13:42:23.971Z,100841.75
2018-08-09T13:44:53.324Z,100842.97
2018-08-09T13:47:22.783Z,100837.45
2018-08-09T13:49:52.200Z,100843.80
2018-08-09T13:52:21.569Z,100827.77
2018-08-09T13:54:51.047Z,100819.51
2018-08-09T13:57:20.846Z,100817.13
2018-08-09T13:59:50.149Z,100802.11
2018-08-09T14:02:19.442Z,100791.12
2018-08-09T14:04:48.766Z,100780.12
2018-08-09T14:07:18.134Z,100771.55
2018-08-09T14:09:47.420Z,100778.20
2018-08-09T14:12:16.727Z,100764.34
2018-08-09T14:14:46.047Z,100751.64
2018-08-09T14:17:15.427Z,100750.34
2018-08-09T14:19:44.874Z,100745.73
2018-08-09T14:22:14.196Z,100748.19
2018-08-09T14:24:43.550Z,100746.94
2018-08-09T14:27:12.832Z,100734.19
2018-08-09T14:29:42.152Z,100735.00
2018-08-09T14:32:11.500Z,100734.33
2018-08-09T14:34:40.908Z,100719.50
2018-08-09T14:37:10.286Z,100715.48
2018-08-09T14:39:39.609Z,100709.97
2018-08-09T14:42:10.015Z,100706.34
2018-08-09T14:44:39.365Z,100692.66
2018-08-09T14:47:08.731Z,100685.78
2018-08-09T14:49:38.138Z,100677.15
2018-08-09T14:52:07.508Z,100667.87
2018-08-09T14:54:36.976Z,100656.53
2018-08-09T14:57:06.342Z,100648.45
2018-08-09T14:59:35.753Z,100635.08
2018-08-09T15:02:05.164Z,100633.75
2018-08-09T15:04:35.051Z,100628.66
2018-08-09T15:07:04.945Z,100626.11
2018-08-09T15:09:34.276Z,100613.61
2018-08-09T15:12:03.689Z,100609.87
2018-08-09T15:14:33.039Z,100612.47
2018-08-09T15:17:02.358Z,100607.15
2018-08-09T15:19:31.759Z,100610.61
2018-08-09T15:22:01.053Z,100607.55
2018-08-09T15:24:31.401Z,100608.08
2018-08-09T15:27:00.833Z,100606.69
2018-08-09T15:29:30.258Z,100612.04
2018-08-09T15:31:59.569Z,100596.63
2018-08-09T15:34:28.935Z,100602.19
2018-08-09T15:36:58.283Z,100595.48
2018-08-09T15:39:27.675Z,100583.23
2018-08-09T15:41:57.006Z,100584.77
2018-08-09T15:44:26.392Z,100570.03
2018-08-09T15:46:55.833Z,100556.94
2018-08-09T15:49:25.659Z,100543.79
2018-08-09T15:51:55.097Z,100541.73
2018-08-09T15:54:24.406Z,100540.20
2018-08-09T15:56:53.849Z,100533.61
2018-08-09T15:59:23.231Z,100525.83
2018-08-09T16:01:52.606Z,100511.87
2018-08-09T16:04:22.027Z,100507.31
2018-08-09T16:06:51.511Z,100499.20
2018-08-09T16:09:20.848Z,100487.93
2018-08-09T16:11:50.409Z,100472.83
2018-08-09T16:14:19.806Z,100468.41
2018-08-09T16:16:49.133Z,100475.09
2018-08-09T16:19:18.485Z,100463.41
2018-08-09T16:21:47.888Z,100466.89
2018-08-09T16:24:17.266Z,100462.12
2018-08-09T16:26:46.647Z,100452.64
2018-08-09T16:29:16.050Z,100444.53
2018-08-09T16:31:45.563Z,100447.81
2018-08-09T16:34:16.412Z,100451.66
2018-08-09T16:36:45.833Z,100452.92
2018-08-09T16:39:15.430Z,100453.34
2018-08-09T16:41:44.764Z,100455.77
2018-08-09T16:44:14.115Z,100447.59
2018-08-09T16:46:43.445Z,100442.70
2018-08-09T16:49:12.811Z,100422.45
2018-08-09T16:51:42.227Z,100418.66
2018-08-09T16:54:11.688Z,100419.91
2018-08-09T16:56:42.170Z,100412.14
2018-08-09T16:59:11.758Z,100418.55
2018-08-09T17:01:41.096Z,100407.48
2018-08-09T17:04:10.487Z,100414.47
2018-08-09T17:06:39.809Z,100480.22
2018-08-09T17:09:13.866Z,100533.73
2018-08-09T17:11:44.026Z,100510.41
2018-08-09T17:14:15.381Z,100564.65
2018-08-09T17:16:45.180Z,100614.21
2018-08-09T17:19:14.449Z,100721.51
2018-08-09T17:21:44.015Z,100767.75
2018-08-09T17:24:13.434Z,100728.85
2018-08-09T17:26:42.853Z,100669.82
2018-08-09T17:29:12.246Z,100708.34
2018-08-09T17:31:41.614Z,100672.55
2018-08-09T17:34:10.922Z,100656.14
2018-08-09T17:36:40.407Z,100654.52
2018-08-09T17:39:12.317Z,100671.44
2018-08-09T17:41:41.803Z,100669.23
2018-08-09T17:44:12.383Z,100660.41
2018-08-09T17:46:41.718Z,100656.38
2018-08-09T17:49:11.034Z,100649.20
2018-08-09T17:51:40.437Z,100636.06
2018-08-09T17:54:09.826Z,100647.59
2018-08-09T17:56:39.672Z,100665.16
2018-08-09T17:59:09.009Z,100678.33
2018-08-09T18:01:38.368Z,100687.61
2018-08-09T18:04:07.806Z,100676.05
2018-08-09T18:06:37.413Z,100679.59
2018-08-09T18:09:10.316Z,100662.09
2018-08-09T18:11:40.179Z,100634.66
2018-08-09T18:14:09.563Z,100666.30
2018-08-09T18:16:39.736Z,100660.16
2018-08-09T18:19:09.126Z,100672.86
2018-08-09T18:21:38.420Z,100664.72
2018-08-09T18:24:07.937Z,100638.34
2018-08-09T18:26:37.282Z,100615.40
2018-08-09T18:29:06.634Z,100645.31
2018-08-09T18:31:35.964Z,100642.30
2018-08-09T18:34:05.701Z,100642.38
2018-08-09T18:36:35.038Z,100637.48
2018-08-09T18:39:07.313Z,100640.26
2018-08-09T18:41:36.691Z,100634.19
2018-08-09T18:44:06.016Z,100618.45
2018-08-09T18:46:35.394Z,100614.81
2018-08-09T18:49:04.688Z,100609.77
2018-08-09T18:51:34.018Z,100591.94
2018-08-09T18:54:03.324Z,100593.95
2018-08-09T18:56:32.682Z,100585.73
2018-08-09T18:59:01.995Z,100578.03
2018-08-09T19:01:31.532Z,100572.37
2018-08-09T19:04:00.942Z,100562.48
2018-08-09T19:06:30.260Z,100555.23
2018-08-09T19:08:59.651Z,100558.98
2018-08-09T19:11:29.023Z,100543.84
2018-08-09T19:13:58.570Z,100560.20
2018-08-09T19:16:27.936Z,100570.66
2018-08-09T19:18:57.357Z,100575.86
2018-08-09T19:21:26.672Z,100581.22
2018-08-09T19:23:56.586Z,100586.83
2018-08-09T19:26:25.856Z,100583.88
2018-08-09T19:28:55.237Z,100585.92
2018-08-09T19:31:24.537Z,100589.38
2018-08-09T19:33:54.099Z,100579.72
2018-08-09T19:36:23.700Z,100587.02
2018-08-09T19:38:53.000Z,100589.87
2018-08-09T19:41:22.303Z,100588.00
2018-08-09T19:43:51.673Z,100589.58
2018-08-09T19:46:21.706Z,100581.55
2018-08-09T19:48:51.085Z,100590.66
2018-08-09T19:51:20.427Z,100607.67
2018-08-09T19:53:49.787Z,100609.59
2018-08-09T19:56:19.166Z,100600.52
2018-08-09T19:58:48.515Z,100611.17
2018-08-09T20:01:17.907Z,100601.11
2018-08-09T20:03:52.644Z,100600.82
2018-08-09T20:06:22.288Z,100609.64
2018-08-09T20:08:51.941Z,100612.11
2018-08-09T20:11:21.267Z,100609.84
2018-08-09T20:13:50.627Z,100608.22
2018-08-09T20:16:19.973Z,100611.77
2018-08-09T20:18:49.239Z,100612.16
2018-08-09T20:21:18.593Z,100607.42
2018-08-09T20:23:47.922Z,100614.77
2018-08-09T20:26:17.270Z,100610.28
2018-08-09T20:28:46.883Z,100608.83
2018-08-09T20:31:16.308Z,100614.61
2018-08-09T20:33:45.650Z,100614.29
2018-08-09T20:36:15.082Z,100617.30
2018-08-09T20:38:44.381Z,100622.64
2018-08-09T20:41:13.911Z,100628.13
2018-08-09T20:43:43.237Z,100638.18
2018-08-09T20:46:12.604Z,100652.88
2018-08-09T20:48:41.917Z,100659.98
2018-08-09T20:51:11.769Z,100657.66
2018-08-09T20:53:41.111Z,100655.05
2018-08-09T20:56:10.452Z,100656.39
2018-08-09T20:58:40.061Z,100652.98
2018-08-09T21:01:09.364Z,100658.02
2018-08-09T21:03:38.816Z,100661.66
2018-08-09T21:06:08.282Z,100671.11
2018-08-09T21:08:44.192Z,100676.34
2018-08-09T21:11:13.991Z,100670.13
2018-08-09T21:13:43.362Z,100668.74
2018-08-09T21:16:12.814Z,100673.69
2018-08-09T21:18:42.317Z,100672.02
2018-08-09T21:21:11.659Z,100667.09
2018-08-09T21:23:40.945Z,100672.22
2018-08-09T21:26:10.387Z,100670.14
2018-08-09T21:28:39.669Z,100673.61
2018-08-09T21:31:09.227Z,100668.28
2018-08-09T21:33:38.795Z,100673.69
2018-08-09T21:36:10.256Z,100669.91
2018-08-09T21:38:39.575Z,100664.59
2018-08-09T21:41:09.189Z,100675.61
2018-08-09T21:43:38.438Z,100682.67
2018-08-09T21:46:07.760Z,100692.58
2018-08-09T21:48:37.023Z,100694.56
2018-08-09T21:51:06.456Z,100706.84
2018-08-09T21:53:36.351Z,100706.88
2018-08-09T21:56:05.707Z,100708.55
2018-08-09T21:58:35.032Z,100715.69
2018-08-09T22:01:06.759Z,100712.63
2018-08-09T22:03:38.088Z,100723.42
2018-08-09T22:06:12.648Z,100719.04
2018-08-09T22:08:47.188Z,100720.59
2018-08-09T22:11:22.104Z,100726.53
2018-08-09T22:13:56.752Z,100739.02
2018-08-09T22:16:31.363Z,100735.94
2018-08-09T22:19:05.887Z,100734.94
2018-08-09T22:21:40.587Z,100730.72
2018-08-09T22:24:09.865Z,100730.42
2018-08-09T22:26:39.136Z,100723.17
2018-08-09T22:29:08.775Z,100730.31
2018-08-09T22:31:38.086Z,100734.16
2018-08-09T22:34:07.323Z,100735.95
2018-08-09T22:36:36.634Z,100743.09
2018-08-09T22:39:09.082Z,100735.41
2018-08-09T22:41:38.358Z,100741.41
2018-08-09T22:44:07.807Z,100738.66
2018-08-09T22:46:37.089Z,100739.73
2018-08-09T22:49:06.885Z,100755.48
2018-08-09T22:51:36.856Z,100761.83
2018-08-09T22:54:07.111Z,100758.12
2018-08-09T22:56:36.642Z,100764.41
2018-08-09T22:59:06.021Z,100771.67
2018-08-09T23:01:35.282Z,100775.56
2018-08-09T23:04:04.572Z,100772.81
2018-08-09T23:06:33.910Z,100780.11
2018-08-09T23:09:03.372Z,100781.73
2018-08-09T23:11:33.234Z,100783.23
2018-08-09T23:14:02.517Z,100778.02
2018-08-09T23:16:31.831Z,100785.43
2018-08-09T23:19:01.158Z,100789.56
2018-08-09T23:21:31.941Z,100796.77
2018-08-09T23:24:01.472Z,100795.45
2018-08-09T23:26:30.797Z,100795.98
2018-08-09T23:29:00.134Z,100796.82
2018-08-09T23:31:30.215Z,100803.24
2018-08-09T23:33:59.528Z,100809.22
2018-08-09T23:36:28.992Z,100824.52
2018-08-09T23:38:58.453Z,100828.38
2018-08-09T23:41:28.136Z,100827.33
2018-08-09T23:43:57.375Z,100832.12
2018-08-09T23:46:26.780Z,100842.48
2018-08-09T23:48:56.054Z,100835.17
2018-08-09T23:51:25.296Z,100830.31
2018-08-09T23:53:54.662Z,100840.17
2018-08-09T23:56:23.930Z,100837.88
2018-08-09T23:58:53.375Z,100834.84
